createdAt,value
2023-02-11T00:00:05.642Z,1022.44
2023-02-11T00:00:15.038Z,1022.37
2023-02-11T00:00:24.429Z,1022.35
2023-02-11T00:00:33.838Z,1022.45
2023-02-11T00:00:43.232Z,1022.45
2023-02-11T00:00:52.809Z,1022.44
2023-02-11T00:01:02.125Z,1022.49
2023-02-11T00:01:11.637Z,1022.45
2023-02-11T00:01:21.003Z,1022.43
2023-02-11T00:01:39.811Z,1022.39
2023-02-11T00:01:49.256Z,1022.40
2023-02-11T00:01:58.664Z,1022.42
2023-02-11T00:02:08.128Z,1022.42
2023-02-11T00:02:17.499Z,1022.47
2023-02-11T00:02:26.941Z,1022.42
2023-02-11T00:02:36.359Z,1022.29
2023-02-11T00:02:47.921Z,1022.43
2023-02-11T00:02:55.043Z,1022.45
2023-02-11T00:03:04.455Z,1022.46
2023-02-11T00:03:13.877Z,1022.36
2023-02-11T00:03:23.344Z,1022.39
2023-02-11T00:03:32.773Z,1022.45
2023-02-11T00:03:42.141Z,1022.46
2023-02-11T00:03:51.641Z,1022.48
2023-02-11T00:04:01.111Z,1022.44
2023-02-11T00:04:19.846Z,1022.56
2023-02-11T00:04:29.219Z,1022.49
2023-02-11T00:04:38.601Z,1022.54
2023-02-11T00:04:48.013Z,1022.46
2023-02-11T00:04:57.384Z,1022.49
2023-02-11T00:05:06.794Z,1022.52
2023-02-11T00:05:16.197Z,1022.36
2023-02-11T00:05:25.584Z,1022.46
2023-02-11T00:05:35.006Z,1022.48
2023-02-11T00:05:44.409Z,1022.45
2023-02-11T00:05:53.813Z,1022.50
2023-02-11T00:06:03.267Z,1022.40
2023-02-11T00:06:12.647Z,1022.46
2023-02-11T00:06:22.051Z,1022.42
2023-02-11T00:06:31.434Z,1022.46
2023-02-11T00:06:40.815Z,1022.42
2023-02-11T00:06:59.583Z,1022.41
2023-02-11T00:07:08.983Z,1022.42
2023-02-11T00:07:18.395Z,1022.40
2023-02-11T00:07:27.792Z,1022.47
2023-02-11T00:07:37.189Z,1022.39
2023-02-11T00:07:46.575Z,1022.39
2023-02-11T00:07:55.972Z,1022.38
2023-02-11T00:08:05.351Z,1022.45
2023-02-11T00:08:14.734Z,1022.47
2023-02-11T00:08:24.123Z,1022.35
2023-02-11T00:08:33.499Z,1022.50
2023-02-11T00:08:42.880Z,1022.43
2023-02-11T00:08:52.275Z,1022.41
2023-02-11T00:09:01.691Z,1022.50
2023-02-11T00:09:11.061Z,1022.42
2023-02-11T00:09:31.877Z,1022.44
2023-02-11T00:09:39.298Z,1022.43
2023-02-11T00:09:48.679Z,1022.46
2023-02-11T00:09:58.065Z,1022.50
2023-02-11T00:10:07.476Z,1022.51
2023-02-11T00:10:16.882Z,1022.54
2023-02-11T00:10:26.308Z,1022.46
2023-02-11T00:10:35.699Z,1022.47
2023-02-11T00:10:45.085Z,1022.45
2023-02-11T00:10:54.478Z,1022.50
2023-02-11T00:11:03.886Z,1022.48
2023-02-11T00:11:13.267Z,1022.50
2023-02-11T00:11:22.646Z,1022.42
2023-02-11T00:11:32.029Z,1022.44
2023-02-11T00:11:41.424Z,1022.45
2023-02-11T00:11:50.792Z,1022.37
2023-02-11T00:12:09.569Z,1022.49
2023-02-11T00:12:18.986Z,1022.39
2023-02-11T00:12:28.389Z,1022.37
2023-02-11T00:12:37.786Z,1022.47
2023-02-11T00:12:47.181Z,1022.44
2023-02-11T00:12:56.591Z,1022.46
2023-02-11T00:13:05.963Z,1022.45
2023-02-11T00:13:15.352Z,1022.45
2023-02-11T00:13:24.736Z,1022.49
2023-02-11T00:13:34.118Z,1022.53
2023-02-11T00:13:43.517Z,1022.47
2023-02-11T00:13:52.902Z,1022.48
2023-02-11T00:14:02.322Z,1022.49
2023-02-11T00:14:11.692Z,1022.51
2023-02-11T00:14:21.113Z,1022.45
2023-02-11T00:14:30.544Z,1022.47
2023-02-11T00:14:49.347Z,1022.56
2023-02-11T00:14:58.730Z,1022.52
2023-02-11T00:15:08.128Z,1022.44
2023-02-11T00:15:17.535Z,1022.51
2023-02-11T00:15:26.947Z,1022.46
2023-02-11T00:15:36.328Z,1022.40
2023-02-11T00:15:45.723Z,1022.57
2023-02-11T00:15:55.133Z,1022.53
2023-02-11T00:16:04.568Z,1022.52
2023-02-11T00:16:14.008Z,1022.37
2023-02-11T00:16:23.445Z,1022.49
2023-02-11T00:16:32.914Z,1022.49
2023-02-11T00:16:42.286Z,1022.48
2023-02-11T00:16:51.658Z,1022.38
2023-02-11T00:17:02.111Z,1022.36
2023-02-11T00:17:11.442Z,1022.41
2023-02-11T00:17:20.844Z,1022.44
2023-02-11T00:17:39.663Z,1022.42
2023-02-11T00:17:49.064Z,1022.48
2023-02-11T00:17:58.453Z,1022.39
2023-02-11T00:18:07.860Z,1022.43
2023-02-11T00:18:17.270Z,1022.44
2023-02-11T00:18:26.695Z,1022.41
2023-02-11T00:18:36.073Z,1022.43
2023-02-11T00:18:45.456Z,1022.45
2023-02-11T00:18:54.866Z,1022.51
2023-02-11T00:19:04.296Z,1022.25
2023-02-11T00:19:13.653Z,1022.26
2023-02-11T00:19:23.036Z,1022.26
2023-02-11T00:19:32.428Z,1022.34
2023-02-11T00:19:41.799Z,1022.41
2023-02-11T00:19:51.206Z,1022.24
2023-02-11T00:20:00.589Z,1022.24
2023-02-11T00:20:19.372Z,1022.31
2023-02-11T00:20:28.745Z,1022.30
2023-02-11T00:20:38.154Z,1022.39
2023-02-11T00:20:47.554Z,1022.29
2023-02-11T00:20:56.963Z,1022.35
2023-02-11T00:21:06.396Z,1022.33
2023-02-11T00:21:15.809Z,1022.32
2023-02-11T00:21:25.209Z,1022.11
2023-02-11T00:21:34.590Z,1022.24
2023-02-11T00:21:43.976Z,1022.27
2023-02-11T00:21:53.380Z,1022.37
2023-02-11T00:22:02.781Z,1022.18
2023-02-11T00:22:12.178Z,1022.27
2023-02-11T00:22:21.575Z,1022.32
2023-02-11T00:22:30.960Z,1022.26
2023-02-11T00:22:49.776Z,1022.23
2023-02-11T00:22:59.189Z,1022.28
2023-02-11T00:23:08.599Z,1022.25
2023-02-11T00:23:18.034Z,1022.30
2023-02-11T00:23:27.418Z,1022.25
2023-02-11T00:23:36.814Z,1022.27
2023-02-11T00:23:46.238Z,1022.14
2023-02-11T00:23:55.597Z,1022.27
2023-02-11T00:24:04.994Z,1022.24
2023-02-11T00:24:14.394Z,1022.18
2023-02-11T00:24:23.804Z,1022.18
2023-02-11T00:24:33.194Z,1022.16
2023-02-11T00:24:42.618Z,1022.15
2023-02-11T00:24:51.986Z,1022.09
2023-02-11T00:25:01.420Z,1022.14
2023-02-11T00:25:10.791Z,1022.23
2023-02-11T00:25:29.596Z,1022.19
2023-02-11T00:25:39.006Z,1022.25
2023-02-11T00:25:48.669Z,1022.22
2023-02-11T00:25:57.834Z,1022.20
2023-02-11T00:26:07.203Z,1022.23
2023-02-11T00:26:16.613Z,1022.21
2023-02-11T00:26:26.023Z,1022.17
2023-02-11T00:26:35.430Z,1022.18
2023-02-11T00:26:44.789Z,1022.15
2023-02-11T00:26:54.195Z,1022.21
2023-02-11T00:27:03.582Z,1022.27
2023-02-11T00:27:12.968Z,1022.28
2023-02-11T00:27:22.362Z,1022.30
2023-02-11T00:27:31.749Z,1022.25
2023-02-11T00:27:41.143Z,1022.27
2023-02-11T00:27:50.532Z,1022.23
2023-02-11T00:28:09.376Z,1022.20
2023-02-11T00:28:18.794Z,1022.08
2023-02-11T00:28:28.170Z,1022.16
2023-02-11T00:28:37.523Z,1022.12
2023-02-11T00:28:46.917Z,1022.24
2023-02-11T00:28:56.314Z,1022.09
2023-02-11T00:29:05.700Z,1022.11
2023-02-11T00:29:15.092Z,1022.10
2023-02-11T00:29:24.495Z,1022.16
2023-02-11T00:29:33.919Z,1022.25
2023-02-11T00:29:43.286Z,1022.16
2023-02-11T00:29:52.681Z,1022.22
2023-02-11T00:30:02.067Z,1022.16
2023-02-11T00:30:11.479Z,1022.17
2023-02-11T00:30:20.861Z,1022.24
2023-02-11T00:30:39.844Z,1022.21
2023-02-11T00:30:49.183Z,1022.28
2023-02-11T00:30:58.569Z,1022.25
2023-02-11T00:31:07.982Z,1022.19
2023-02-11T00:31:17.439Z,1022.24
2023-02-11T00:31:26.914Z,1022.27
2023-02-11T00:31:36.379Z,1022.27
2023-02-11T00:31:45.692Z,1022.29
2023-02-11T00:31:55.014Z,1022.26
2023-02-11T00:32:04.315Z,1022.24
2023-02-11T00:32:13.636Z,1022.30
2023-02-11T00:32:23.034Z,1022.24
2023-02-11T00:32:32.421Z,1022.35
2023-02-11T00:32:41.858Z,1022.21
2023-02-11T00:32:51.293Z,1022.26
2023-02-11T00:33:00.679Z,1022.30
2023-02-11T00:33:19.453Z,1022.25
2023-02-11T00:33:28.829Z,1022.29
2023-02-11T00:33:38.241Z,1022.33
2023-02-11T00:33:47.650Z,1022.27
2023-02-11T00:33:57.034Z,1022.34
2023-02-11T00:34:06.429Z,1022.27
2023-02-11T00:34:15.802Z,1022.29
2023-02-11T00:34:25.199Z,1022.23
2023-02-11T00:34:34.577Z,1022.19
2023-02-11T00:34:43.966Z,1022.24
2023-02-11T00:34:53.377Z,1022.27
2023-02-11T00:35:02.762Z,1022.20
2023-02-11T00:35:12.152Z,1022.32
2023-02-11T00:35:21.560Z,1022.33
2023-02-11T00:35:30.953Z,1022.25
2023-02-11T00:35:50.078Z,1022.22
2023-02-11T00:35:59.165Z,1022.16
2023-02-11T00:36:08.551Z,1022.19
2023-02-11T00:36:17.949Z,1022.17
2023-02-11T00:36:27.346Z,1022.28
2023-02-11T00:36:36.759Z,1022.23
2023-02-11T00:36:46.171Z,1022.22
2023-02-11T00:36:55.546Z,1022.19
2023-02-11T00:37:04.955Z,1022.24
2023-02-11T00:37:14.355Z,1022.23
2023-02-11T00:37:23.752Z,1022.20
2023-02-11T00:37:33.201Z,1022.28
2023-02-11T00:37:42.588Z,1022.19
2023-02-11T00:37:52.004Z,1022.25
2023-02-11T00:38:01.407Z,1022.17
2023-02-11T00:38:10.804Z,1022.23
2023-02-11T00:38:29.556Z,1022.15
2023-02-11T00:38:38.956Z,1022.16
2023-02-11T00:38:48.358Z,1022.13
2023-02-11T00:38:57.736Z,1022.21
2023-02-11T00:39:07.129Z,1022.17
2023-02-11T00:39:16.521Z,1022.22
2023-02-11T00:39:25.932Z,1022.16
2023-02-11T00:39:35.328Z,1022.10
2023-02-11T00:39:44.753Z,1022.18
2023-02-11T00:39:54.135Z,1022.19
2023-02-11T00:40:06.379Z,1022.11
2023-02-11T00:40:12.943Z,1022.19
2023-02-11T00:40:22.398Z,1022.23
2023-02-11T00:40:31.817Z,1022.16
2023-02-11T00:40:41.198Z,1022.19
2023-02-11T00:40:50.610Z,1022.16
2023-02-11T00:41:04.544Z,1022.15
2023-02-11T00:41:13.924Z,1022.12
2023-02-11T00:41:23.333Z,1022.19
2023-02-11T00:41:32.735Z,1022.08
2023-02-11T00:41:42.134Z,1022.12
2023-02-11T00:41:51.529Z,1022.08
2023-02-11T00:42:00.933Z,1022.08
2023-02-11T00:42:19.734Z,1022.01
2023-02-11T00:42:29.126Z,1022.15
2023-02-11T00:42:38.510Z,1022.12
2023-02-11T00:42:47.909Z,1022.13
2023-02-11T00:42:57.317Z,1022.02
2023-02-11T00:43:06.712Z,1022.10
2023-02-11T00:43:16.103Z,1022.05
2023-02-11T00:43:25.517Z,1021.96
2023-02-11T00:43:34.904Z,1022.06
2023-02-11T00:43:44.309Z,1022.09
2023-02-11T00:43:53.764Z,1021.94
2023-02-11T00:44:03.086Z,1022.12
2023-02-11T00:44:12.491Z,1022.09
2023-02-11T00:44:21.882Z,1022.08
2023-02-11T00:44:31.317Z,1022.16
2023-02-11T00:44:40.697Z,1022.08
2023-02-11T00:44:59.553Z,1022.12
2023-02-11T00:45:08.940Z,1022.15
2023-02-11T00:45:18.308Z,1022.13
2023-02-11T00:45:27.690Z,1022.09
2023-02-11T00:45:37.107Z,1022.08
2023-02-11T00:45:46.640Z,1022.14
2023-02-11T00:45:55.964Z,1022.15
2023-02-11T00:46:05.361Z,1022.19
2023-02-11T00:46:14.754Z,1022.23
2023-02-11T00:46:24.213Z,1022.19
2023-02-11T00:46:33.561Z,1022.14
2023-02-11T00:46:42.968Z,1022.20
2023-02-11T00:46:52.282Z,1022.19
2023-02-11T00:47:01.677Z,1022.18
2023-02-11T00:47:11.062Z,1022.24
2023-02-11T00:47:29.859Z,1022.07
2023-02-11T00:47:39.278Z,1022.19
2023-02-11T00:47:48.664Z,1022.17
2023-02-11T00:47:58.062Z,1021.97
2023-02-11T00:48:07.469Z,1022.11
2023-02-11T00:48:16.871Z,1022.04
2023-02-11T00:48:26.261Z,1021.99
2023-02-11T00:48:35.660Z,1022.06
2023-02-11T00:48:45.062Z,1021.95
2023-02-11T00:48:54.445Z,1022.09
2023-02-11T00:49:03.850Z,1022.01
2023-02-11T00:49:13.261Z,1022.06
2023-02-11T00:49:22.685Z,1022.11
2023-02-11T00:49:32.069Z,1022.08
2023-02-11T00:49:41.470Z,1022.06
2023-02-11T00:49:50.863Z,1022.09
2023-02-11T00:50:09.710Z,1022.23
2023-02-11T00:50:19.121Z,1022.06
2023-02-11T00:50:28.540Z,1022.14
2023-02-11T00:50:38.008Z,1022.01
2023-02-11T00:50:48.436Z,1022.08
2023-02-11T00:50:57.845Z,1021.99
2023-02-11T00:51:07.291Z,1022.07
2023-02-11T00:51:16.697Z,1021.98
2023-02-11T00:51:26.083Z,1021.91
2023-02-11T00:51:35.479Z,1022.02
2023-02-11T00:51:44.878Z,1021.95
2023-02-11T00:51:54.278Z,1022.06
2023-02-11T00:52:03.658Z,1021.99
2023-02-11T00:52:13.033Z,1022.14
2023-02-11T00:52:22.417Z,1022.17
2023-02-11T00:52:31.809Z,1022.05
2023-02-11T00:52:41.209Z,1022.10
2023-02-11T00:52:50.588Z,1022.02
2023-02-11T00:53:09.390Z,1022.09
2023-02-11T00:53:18.766Z,1022.05
2023-02-11T00:53:28.159Z,1022.14
2023-02-11T00:53:37.558Z,1022.07
2023-02-11T00:53:47.022Z,1022.08
2023-02-11T00:53:56.452Z,1022.11
2023-02-11T00:54:05.851Z,1022.09
2023-02-11T00:54:15.232Z,1022.04
2023-02-11T00:54:24.632Z,1022.03
2023-02-11T00:54:34.049Z,1022.04
2023-02-11T00:54:43.434Z,1021.97
2023-02-11T00:54:52.845Z,1022.09
2023-02-11T00:55:02.216Z,1021.94
2023-02-11T00:55:11.594Z,1021.98
2023-02-11T00:55:20.974Z,1022.01
2023-02-11T00:55:39.799Z,1021.96
2023-02-11T00:55:49.617Z,1021.98
2023-02-11T00:55:58.644Z,1021.95
2023-02-11T00:56:08.066Z,1021.95
2023-02-11T00:56:17.458Z,1022.07
2023-02-11T00:56:26.866Z,1022.03
2023-02-11T00:56:36.262Z,1022.02
2023-02-11T00:56:45.651Z,1022.05
2023-02-11T00:56:55.035Z,1022.10
2023-02-11T00:57:04.439Z,1022.04
2023-02-11T00:57:13.841Z,1021.99
2023-02-11T00:57:23.237Z,1022.10
2023-02-11T00:57:32.648Z,1022.09
2023-02-11T00:57:42.049Z,1022.02
2023-02-11T00:57:51.415Z,1022.10
2023-02-11T00:58:00.832Z,1022.08
2023-02-11T00:58:19.697Z,1022.06
2023-02-11T00:58:29.103Z,1022.12
2023-02-11T00:58:38.543Z,1022.00
2023-02-11T00:58:47.907Z,1021.99
2023-02-11T00:58:57.289Z,1022.02
2023-02-11T00:59:06.676Z,1021.96
2023-02-11T00:59:16.080Z,1021.94
2023-02-11T00:59:25.497Z,1021.97
2023-02-11T00:59:34.949Z,1022.05
2023-02-11T00:59:44.353Z,1022.07
2023-02-11T00:59:53.743Z,1022.05
2023-02-11T01:00:03.144Z,1021.96
2023-02-11T01:00:12.546Z,1021.96
2023-02-11T01:00:21.938Z,1022.05
2023-02-11T01:00:31.366Z,1022.10
2023-02-11T01:00:40.759Z,1021.86
2023-02-11T01:00:59.571Z,1022.04
2023-02-11T01:01:09.003Z,1022.01
2023-02-11T01:01:18.401Z,1022.03
2023-02-11T01:01:27.816Z,1021.96
2023-02-11T01:01:37.217Z,1022.10
2023-02-11T01:01:46.604Z,1022.08
2023-02-11T01:01:55.950Z,1021.91
2023-02-11T01:02:05.369Z,1021.94
2023-02-11T01:02:14.782Z,1021.97
2023-02-11T01:02:24.176Z,1022.12
2023-02-11T01:02:33.560Z,1021.91
2023-02-11T01:02:42.963Z,1021.87
2023-02-11T01:02:52.339Z,1021.98
2023-02-11T01:03:01.741Z,1021.91
2023-02-11T01:03:11.116Z,1021.93
2023-02-11T01:03:20.576Z,1021.99
2023-02-11T01:03:39.344Z,1022.03
2023-02-11T01:03:48.740Z,1022.04
2023-02-11T01:03:58.133Z,1022.00
2023-02-11T01:04:07.524Z,1022.00
2023-02-11T01:04:16.930Z,1022.04
2023-02-11T01:04:26.320Z,1022.04
2023-02-11T01:04:35.708Z,1022.07
2023-02-11T01:04:45.161Z,1021.97
2023-02-11T01:04:54.662Z,1022.03
2023-02-11T01:05:04.017Z,1021.86
2023-02-11T01:05:13.441Z,1021.84
2023-02-11T01:05:22.823Z,1021.99
2023-02-11T01:05:32.263Z,1022.01
2023-02-11T01:05:41.671Z,1021.98
2023-02-11T01:05:51.282Z,1021.99
2023-02-11T01:06:09.770Z,1022.02
2023-02-11T01:06:19.134Z,1022.07
2023-02-11T01:06:28.525Z,1022.05
2023-02-11T01:06:37.922Z,1022.02
2023-02-11T01:06:47.314Z,1022.00
2023-02-11T01:06:56.692Z,1022.02
2023-02-11T01:07:06.097Z,1022.04
2023-02-11T01:07:15.490Z,1022.02
2023-02-11T01:07:24.869Z,1022.01
2023-02-11T01:07:34.260Z,1022.05
2023-02-11T01:07:43.641Z,1022.03
2023-02-11T01:07:53.062Z,1022.07
2023-02-11T01:08:02.443Z,1022.07
2023-02-11T01:08:11.875Z,1022.03
2023-02-11T01:08:21.287Z,1022.04
2023-02-11T01:08:30.690Z,1022.09
2023-02-11T01:08:49.481Z,1022.03
2023-02-11T01:08:58.867Z,1022.09
2023-02-11T01:09:08.258Z,1022.04
2023-02-11T01:09:17.654Z,1022.10
2023-02-11T01:09:27.035Z,1022.06
2023-02-11T01:09:36.413Z,1022.02
2023-02-11T01:09:45.966Z,1022.12
2023-02-11T01:09:55.352Z,1022.11
2023-02-11T01:10:04.718Z,1022.08
2023-02-11T01:10:14.109Z,1022.06
2023-02-11T01:10:23.517Z,1022.02
2023-02-11T01:10:32.909Z,1022.10
2023-02-11T01:10:42.326Z,1022.01
2023-02-11T01:10:51.724Z,1022.02
2023-02-11T01:11:01.139Z,1022.06
2023-02-11T01:11:10.503Z,1022.02
2023-02-11T01:11:29.328Z,1021.99
2023-02-11T01:11:38.755Z,1022.04
2023-02-11T01:11:48.194Z,1022.08
2023-02-11T01:11:57.565Z,1022.08
2023-02-11T01:12:06.962Z,1022.01
2023-02-11T01:12:16.363Z,1021.98
2023-02-11T01:12:25.753Z,1022.08
2023-02-11T01:12:36.541Z,1022.09
2023-02-11T01:12:44.546Z,1022.05
2023-02-11T01:12:53.945Z,1022.05
2023-02-11T01:13:03.342Z,1022.12
2023-02-11T01:13:12.726Z,1022.13
2023-02-11T01:13:22.114Z,1022.09
2023-02-11T01:13:31.493Z,1022.13
2023-02-11T01:13:40.895Z,1022.15
2023-02-11T01:13:59.709Z,1022.09
2023-02-11T01:14:09.085Z,1022.11
2023-02-11T01:14:18.513Z,1022.00
2023-02-11T01:14:27.924Z,1022.09
2023-02-11T01:14:37.329Z,1022.09
2023-02-11T01:14:46.724Z,1022.10
2023-02-11T01:14:56.136Z,1022.17
2023-02-11T01:15:05.560Z,1022.06
2023-02-11T01:15:14.936Z,1022.08
2023-02-11T01:15:24.329Z,1022.11
2023-02-11T01:15:33.749Z,1022.08
2023-02-11T01:15:43.195Z,1022.16
2023-02-11T01:15:52.808Z,1022.08
2023-02-11T01:16:02.000Z,1022.14
2023-02-11T01:16:11.450Z,1022.12
2023-02-11T01:16:20.831Z,1022.15
2023-02-11T01:16:39.515Z,1022.14
2023-02-11T01:16:48.911Z,1022.22
2023-02-11T01:16:58.315Z,1022.13
2023-02-11T01:17:07.716Z,1022.11
2023-02-11T01:17:17.114Z,1022.22
2023-02-11T01:17:26.527Z,1022.15
2023-02-11T01:17:35.927Z,1022.20
2023-02-11T01:17:45.324Z,1022.15
2023-02-11T01:17:54.733Z,1022.14
2023-02-11T01:18:04.127Z,1022.13
2023-02-11T01:18:13.536Z,1022.15
2023-02-11T01:18:22.922Z,1022.13
2023-02-11T01:18:32.336Z,1022.09
2023-02-11T01:18:41.735Z,1022.12
2023-02-11T01:18:51.133Z,1022.19
2023-02-11T01:19:00.534Z,1022.17
2023-02-11T01:19:19.323Z,1022.13
2023-02-11T01:19:28.715Z,1022.11
2023-02-11T01:19:38.122Z,1022.18
2023-02-11T01:19:47.546Z,1022.14
2023-02-11T01:19:56.957Z,1022.24
2023-02-11T01:20:06.391Z,1022.14
2023-02-11T01:20:15.766Z,1022.20
2023-02-11T01:20:25.176Z,1022.12
2023-02-11T01:20:34.567Z,1022.14
2023-02-11T01:20:43.964Z,1022.10
2023-02-11T01:20:53.330Z,1022.12
2023-02-11T01:21:02.721Z,1022.11
2023-02-11T01:21:12.139Z,1022.16
2023-02-11T01:21:21.522Z,1022.11
2023-02-11T01:21:30.973Z,1022.20
2023-02-11T01:21:49.751Z,1022.12
2023-02-11T01:21:59.142Z,1022.11
2023-02-11T01:22:08.537Z,1022.04
2023-02-11T01:22:17.991Z,1022.07
2023-02-11T01:22:27.376Z,1022.10
2023-02-11T01:22:36.775Z,1022.20
2023-02-11T01:22:46.167Z,1022.17
2023-02-11T01:22:55.561Z,1022.19
2023-02-11T01:23:04.958Z,1022.24
2023-02-11T01:23:14.365Z,1022.12
2023-02-11T01:23:23.770Z,1022.25
2023-02-11T01:23:33.149Z,1022.07
2023-02-11T01:23:42.540Z,1022.04
2023-02-11T01:23:51.935Z,1022.01
2023-02-11T01:24:01.330Z,1022.13
2023-02-11T01:24:10.723Z,1022.13
2023-02-11T01:24:29.598Z,1022.19
2023-02-11T01:24:39.020Z,1022.12
2023-02-11T01:24:48.428Z,1022.13
2023-02-11T01:24:57.865Z,1022.20
2023-02-11T01:25:07.283Z,1022.22
2023-02-11T01:25:16.680Z,1022.21
2023-02-11T01:25:26.054Z,1022.16
2023-02-11T01:25:35.465Z,1022.17
2023-02-11T01:25:44.851Z,1022.25
2023-02-11T01:25:54.257Z,1022.24
2023-02-11T01:26:03.629Z,1022.22
2023-02-11T01:26:13.057Z,1022.19
2023-02-11T01:26:22.471Z,1022.18
2023-02-11T01:26:31.879Z,1022.17
2023-02-11T01:26:41.348Z,1022.21
2023-02-11T01:26:50.737Z,1022.20
2023-02-11T01:27:09.517Z,1022.24
2023-02-11T01:27:18.940Z,1022.27
2023-02-11T01:27:28.320Z,1022.14
2023-02-11T01:27:37.717Z,1022.20
2023-02-11T01:27:47.091Z,1022.19
2023-02-11T01:27:56.529Z,1022.20
2023-02-11T01:28:05.919Z,1022.23
2023-02-11T01:28:15.265Z,1022.21
2023-02-11T01:28:24.783Z,1022.22
2023-02-11T01:28:34.061Z,1022.17
2023-02-11T01:28:43.389Z,1022.18
2023-02-11T01:28:52.772Z,1022.01
2023-02-11T01:29:02.152Z,1022.12
2023-02-11T01:29:11.585Z,1022.15
2023-02-11T01:29:20.996Z,1022.14
2023-02-11T01:29:39.783Z,1022.21
2023-02-11T01:29:49.157Z,1022.13
2023-02-11T01:29:58.546Z,1022.21
2023-02-11T01:30:07.939Z,1022.15
2023-02-11T01:30:17.342Z,1022.17
2023-02-11T01:30:26.756Z,1022.17
2023-02-11T01:30:36.140Z,1022.21
2023-02-11T01:30:45.563Z,1022.24
2023-02-11T01:30:54.997Z,1022.19
2023-02-11T01:31:04.425Z,1022.21
2023-02-11T01:31:13.839Z,1022.21
2023-02-11T01:31:23.212Z,1022.18
2023-02-11T01:31:32.780Z,1022.22
2023-02-11T01:31:41.971Z,1022.17
2023-02-11T01:31:51.339Z,1022.19
2023-02-11T01:32:00.735Z,1022.19
2023-02-11T01:32:19.527Z,1022.19
2023-02-11T01:32:28.916Z,1022.17
2023-02-11T01:32:38.298Z,1022.16
2023-02-11T01:32:47.727Z,1022.26
2023-02-11T01:32:57.090Z,1022.10
2023-02-11T01:33:06.480Z,1022.22
2023-02-11T01:33:15.857Z,1022.14
2023-02-11T01:33:25.231Z,1022.16
2023-02-11T01:33:34.634Z,1022.15
2023-02-11T01:33:44.026Z,1022.28
2023-02-11T01:33:53.424Z,1022.12
2023-02-11T01:34:02.817Z,1022.14
2023-02-11T01:34:12.219Z,1022.14
2023-02-11T01:34:21.584Z,1022.10
2023-02-11T01:34:30.989Z,1022.15
2023-02-11T01:34:49.762Z,1022.18
2023-02-11T01:34:59.149Z,1022.19
2023-02-11T01:35:08.573Z,1022.15
2023-02-11T01:35:17.976Z,1022.04
2023-02-11T01:35:27.351Z,1022.08
2023-02-11T01:35:36.750Z,1022.06
2023-02-11T01:35:46.132Z,1022.11
2023-02-11T01:35:55.541Z,1022.08
2023-02-11T01:36:04.936Z,1022.05
2023-02-11T01:36:14.335Z,1022.19
2023-02-11T01:36:23.750Z,1022.09
2023-02-11T01:36:33.140Z,1022.13
2023-02-11T01:36:42.554Z,1022.13
2023-02-11T01:36:51.935Z,1022.12
2023-02-11T01:37:01.337Z,1022.03
2023-02-11T01:37:10.723Z,1022.04
2023-02-11T01:37:22.968Z,1022.11
2023-02-11T01:37:32.359Z,1022.03
2023-02-11T01:37:41.748Z,1022.04
2023-02-11T01:37:51.147Z,1022.04
2023-02-11T01:38:00.538Z,1022.07
2023-02-11T01:38:19.346Z,1022.09
2023-02-11T01:38:28.796Z,1022.11
2023-02-11T01:38:38.176Z,1021.99
2023-02-11T01:38:47.544Z,1022.04
2023-02-11T01:38:56.955Z,1022.01
2023-02-11T01:39:06.326Z,1022.09
2023-02-11T01:39:15.730Z,1022.08
2023-02-11T01:39:25.118Z,1021.99
2023-02-11T01:39:34.530Z,1021.95
2023-02-11T01:39:43.937Z,1021.89
2023-02-11T01:39:53.337Z,1021.90
2023-02-11T01:40:02.768Z,1021.92
2023-02-11T01:40:12.109Z,1021.94
2023-02-11T01:40:21.487Z,1022.01
2023-02-11T01:40:30.918Z,1022.02
2023-02-11T01:40:49.719Z,1022.02
2023-02-11T01:40:59.130Z,1021.98
2023-02-11T01:41:08.521Z,1022.03
2023-02-11T01:41:17.941Z,1022.06
2023-02-11T01:41:27.342Z,1022.05
2023-02-11T01:41:36.716Z,1022.11
2023-02-11T01:41:46.112Z,1022.00
2023-02-11T01:41:55.483Z,1022.01
2023-02-11T01:42:04.859Z,1022.11
2023-02-11T01:42:14.242Z,1022.02
2023-02-11T01:42:23.637Z,1022.03
2023-02-11T01:42:33.025Z,1022.02
2023-02-11T01:42:42.406Z,1022.07
2023-02-11T01:42:51.804Z,1022.01
2023-02-11T01:43:01.218Z,1022.02
2023-02-11T01:43:10.709Z,1021.98
2023-02-11T01:43:29.501Z,1022.07
2023-02-11T01:43:38.905Z,1021.94
2023-02-11T01:43:48.294Z,1022.04
2023-02-11T01:43:57.706Z,1021.97
2023-02-11T01:44:07.082Z,1021.90
2023-02-11T01:44:16.472Z,1022.02
2023-02-11T01:44:25.858Z,1021.94
2023-02-11T01:44:35.251Z,1022.01
2023-02-11T01:44:44.718Z,1021.97
2023-02-11T01:44:54.115Z,1021.94
2023-02-11T01:45:03.543Z,1021.90
2023-02-11T01:45:12.958Z,1021.97
2023-02-11T01:45:22.356Z,1021.95
2023-02-11T01:45:31.752Z,1021.94
2023-02-11T01:45:41.146Z,1021.98
2023-02-11T01:45:50.936Z,1022.02
2023-02-11T01:46:09.355Z,1021.95
2023-02-11T01:46:18.821Z,1021.92
2023-02-11T01:46:28.212Z,1021.96
2023-02-11T01:46:37.675Z,1021.97
2023-02-11T01:46:46.978Z,1021.77
2023-02-11T01:46:56.322Z,1021.82
2023-02-11T01:47:05.763Z,1021.88
2023-02-11T01:47:15.154Z,1021.87
2023-02-11T01:47:24.591Z,1021.89
2023-02-11T01:47:33.967Z,1021.85
2023-02-11T01:47:43.377Z,1021.84
2023-02-11T01:47:52.762Z,1021.89
2023-02-11T01:48:02.118Z,1021.88
2023-02-11T01:48:11.517Z,1021.88
2023-02-11T01:48:20.916Z,1021.88
2023-02-11T01:48:39.697Z,1021.88
2023-02-11T01:48:49.161Z,1021.98
2023-02-11T01:48:58.571Z,1021.84
2023-02-11T01:49:07.898Z,1021.88
2023-02-11T01:49:17.334Z,1021.89
2023-02-11T01:49:26.789Z,1021.83
2023-02-11T01:49:36.178Z,1021.77
2023-02-11T01:49:45.477Z,1021.78
2023-02-11T01:49:54.881Z,1021.79
2023-02-11T01:50:04.277Z,1021.82
2023-02-11T01:50:13.681Z,1021.81
2023-02-11T01:50:23.077Z,1021.75
2023-02-11T01:50:32.467Z,1021.79
2023-02-11T01:50:41.866Z,1021.93
2023-02-11T01:50:51.264Z,1021.80
2023-02-11T01:51:00.685Z,1021.92
2023-02-11T01:51:19.480Z,1021.84
2023-02-11T01:51:28.873Z,1021.78
2023-02-11T01:51:38.302Z,1021.83
2023-02-11T01:51:47.710Z,1021.81
2023-02-11T01:51:57.101Z,1021.89
2023-02-11T01:52:06.504Z,1021.84
2023-02-11T01:52:15.899Z,1021.78
2023-02-11T01:52:25.268Z,1021.83
2023-02-11T01:52:34.679Z,1021.83
2023-02-11T01:52:44.062Z,1021.81
2023-02-11T01:52:53.451Z,1021.81
2023-02-11T01:53:02.882Z,1021.76
2023-02-11T01:53:12.264Z,1021.78
2023-02-11T01:53:21.707Z,1021.71
2023-02-11T01:53:31.129Z,1021.73
2023-02-11T01:53:40.536Z,1021.71
2023-02-11T01:53:59.327Z,1021.81
2023-02-11T01:54:08.726Z,1021.72
2023-02-11T01:54:18.492Z,1021.79
2023-02-11T01:54:27.899Z,1021.81
2023-02-11T01:54:37.275Z,1021.80
2023-02-11T01:54:46.672Z,1021.77
2023-02-11T01:54:56.033Z,1021.75
2023-02-11T01:55:05.423Z,1021.75
2023-02-11T01:55:14.791Z,1021.80
2023-02-11T01:55:24.217Z,1021.69
2023-02-11T01:55:33.556Z,1021.74
2023-02-11T01:55:42.956Z,1021.80
2023-02-11T01:55:52.350Z,1021.82
2023-02-11T01:56:01.743Z,1021.73
2023-02-11T01:56:11.123Z,1021.78
2023-02-11T01:56:20.554Z,1021.75
2023-02-11T01:56:39.337Z,1021.77
2023-02-11T01:56:48.715Z,1021.79
2023-02-11T01:56:58.101Z,1021.76
2023-02-11T01:57:07.481Z,1021.79
2023-02-11T01:57:16.879Z,1021.73
2023-02-11T01:57:26.299Z,1021.73
2023-02-11T01:57:35.663Z,1021.80
2023-02-11T01:57:45.062Z,1021.67
2023-02-11T01:57:54.448Z,1021.66
2023-02-11T01:58:03.861Z,1021.61
2023-02-11T01:58:13.272Z,1021.67
2023-02-11T01:58:22.673Z,1021.72
2023-02-11T01:58:32.065Z,1021.64
2023-02-11T01:58:41.466Z,1021.64
2023-02-11T01:58:50.860Z,1021.66
2023-02-11T01:59:09.693Z,1021.69
2023-02-11T01:59:19.087Z,1021.70
2023-02-11T01:59:28.487Z,1021.65
2023-02-11T01:59:38.012Z,1021.68
2023-02-11T01:59:47.384Z,1021.68
2023-02-11T01:59:56.847Z,1021.60
2023-02-11T02:00:06.250Z,1021.61
2023-02-11T02:00:15.691Z,1021.61
2023-02-11T02:00:25.086Z,1021.58
2023-02-11T02:00:34.481Z,1021.63
2023-02-11T02:00:43.866Z,1021.65
2023-02-11T02:00:53.265Z,1021.58